Decoded Metar for KMCJ ( in _UNIDENTIFIED) (IATA:N/A) | Meteo·Mobile Aviation Weather
aviador You're here:

KMCJ Decoded Metar

in _UNIDENTIFIED
Report Time2019-10-20 23:35:00
UTC Time2019-10-20 23:59:04
Flight Rules vfr VFR
WindVRB at 05 Gusting to 11 kt
Visibility9999 m
Phenomena:N/A
Clouds:N/A
Expected CloudBase > 2,000 ft AGL from Temp-Dew spread
CeilingNone
Temp28°C (ISA +13)
Dew Point23°C (74% RH)
Heat Index31.2°C
QNH1007 hPa
Density Alt2,346 ft
Elevation226 ft
Report Wrong Elevation
Raw Report
KMCJ 202335Z AUTO VRB05G11KT 10SM CLR 28/23 A2975 RMK A01=

Extra information for KMCJ:More info

Metar Taf Metar & Taf Last 4 Metars F.Rules Stats Wind Profile Meteogram Temp Stats Metar ALERT Operation Metar Decoded Social comments